Scammon Bay Airport
PACM : now visible

Airfield :











YOU CAN JOIN US ON...

 
LOGIN :

Register | Disclaimer

   EN    FR    IT 

 









Legend :    VFR   Marginal VFR   IFR   Intensive IFR   Very Intensive IFR
Visi :
Ceiling :
>= 8 km
>= 3000ft
5 to 8 km
1000 to 3000 ft
1500m to 5 km
500 to 1000 ft
800 to 1500m
200 to 500 ft
< 800m
< 200 ft
Symbols :   Thunderstorms  Fog  Heavy snow  Heavy precipitations  Wind > 20 kt






- Airport Elevation : 14 ft


PACM - Scammon Bay

CURRENT METAR :
  • 241656Z AUTO 15019G24KT 9SM CLR M11/M21 A3038 RMK AO2 SLP284 T11111206 FZRANO

EXPIRED METARs :
  • 241556Z AUTO VRB03KT 10SM CLR M12/M21 A3040 RMK AO2 SNE12 SLP289 P0000 T11221211 FZRANO
  • 241456Z AUTO 15023G27KT 6SM -SN BKN100 M12/M21 A3037 RMK AO2 PK WND 16027/1454 SNB36 SLP280 P0000 60000 T11221211 58010 FZRANO

TAF N/A



MET'MAP, your aeronautical weather chart ! - Copyright ORBIFLY December 2007 - Disclaimer

ORBIFLY MET'MAP TEAM :

Programming & Development : Alexandra Zaïnal
Concept & original design : Baudouin d'Aumeries
Assistance for programming : Marc-Olivier Méhu
Technical & hardware support : Manuel Goepfert

Contact : metmap@orbifly.com




SOURCES & CREDITS :

   NOAA       Earth
Advisory